createdAt,value
2022-11-28T00:01:34.500Z,88.38
2022-11-28T00:04:02.649Z,89.36
2022-11-28T00:06:30.653Z,89.76
2022-11-28T00:09:00.043Z,89.99
2022-11-28T00:11:27.988Z,88.78
2022-11-28T00:13:55.991Z,87.63
2022-11-28T00:16:24.594Z,87.59
2022-11-28T00:18:54.302Z,87.61
2022-11-28T00:21:22.149Z,87.67
2022-11-28T00:23:50.581Z,88.37
2022-11-28T00:26:27.377Z,88.50
2022-11-28T00:28:55.989Z,87.85
2022-11-28T00:31:26.299Z,87.18
2022-11-28T00:33:54.466Z,87.15
2022-11-28T00:36:23.022Z,87.91
2022-11-28T00:38:51.791Z,86.56
2022-11-28T00:41:23.949Z,86.29
2022-11-28T00:43:52.624Z,85.90
2022-11-28T00:46:22.429Z,86.49
2022-11-28T00:48:50.273Z,86.80
2022-11-28T00:51:24.024Z,86.61
2022-11-28T00:53:54.130Z,86.69
2022-11-28T00:56:25.730Z,86.42
2022-11-28T00:58:53.426Z,86.20
2022-11-28T01:01:25.313Z,86.28
2022-11-28T01:03:54.940Z,86.40
2022-11-28T01:06:34.418Z,86.34
2022-11-28T01:09:06.170Z,86.77
2022-11-28T01:11:33.866Z,87.10
2022-11-28T01:14:01.812Z,86.31
2022-11-28T01:16:29.884Z,86.33
2022-11-28T01:18:57.998Z,86.60
2022-11-28T01:21:26.083Z,86.24
2022-11-28T01:23:54.037Z,86.17
2022-11-28T01:26:25.414Z,85.77
2022-11-28T01:28:53.046Z,85.64
2022-11-28T01:31:23.760Z,84.81
2022-11-28T01:33:52.886Z,84.63
2022-11-28T01:36:21.289Z,85.25
2022-11-28T01:38:49.695Z,84.87
2022-11-28T01:41:21.165Z,85.31
2022-11-28T01:44:08.860Z,85.80
2022-11-28T01:46:37.071Z,86.11
2022-11-28T01:49:35.462Z,86.57
2022-11-28T01:52:06.128Z,86.52
2022-11-28T01:54:35.333Z,86.29
2022-11-28T01:57:12.185Z,87.08
2022-11-28T01:59:49.462Z,87.31
2022-11-28T02:02:27.272Z,87.25
2022-11-28T02:04:55.190Z,87.10
2022-11-28T02:07:22.803Z,88.13
2022-11-28T02:09:50.459Z,88.07
2022-11-28T02:12:51.084Z,87.65
2022-11-28T02:15:43.018Z,87.21
2022-11-28T02:18:18.016Z,86.82
2022-11-28T02:20:51.214Z,86.82
2022-11-28T02:23:26.263Z,86.95
2022-11-28T02:26:24.554Z,86.97
2022-11-28T02:29:04.841Z,86.37
2022-11-28T02:31:38.303Z,85.99
2022-11-28T02:34:14.227Z,85.66
2022-11-28T02:36:49.924Z,85.72
2022-11-28T02:39:31.438Z,86.10
2022-11-28T02:42:03.626Z,85.68
2022-11-28T02:44:41.088Z,85.68
2022-11-28T02:47:12.576Z,85.19
2022-11-28T02:50:11.311Z,85.15
2022-11-28T02:52:45.678Z,85.65
2022-11-28T02:55:14.858Z,86.21
2022-11-28T02:57:48.575Z,85.96
2022-11-28T03:00:42.569Z,85.52
2022-11-28T03:03:10.113Z,85.54
2022-11-28T03:05:45.045Z,85.44
2022-11-28T03:08:15.598Z,85.73
2022-11-28T03:10:55.379Z,85.45
2022-11-28T03:13:36.413Z,86.05
2022-11-28T03:16:14.515Z,85.65
2022-11-28T03:19:19.702Z,83.88
2022-11-28T03:21:52.883Z,84.41
2022-11-28T03:24:38.563Z,84.07
2022-11-28T03:27:17.757Z,83.90
2022-11-28T03:29:50.250Z,83.86
2022-11-28T03:32:44.255Z,84.58
2022-11-28T03:35:16.430Z,83.48
2022-11-28T03:37:49.480Z,83.71
2022-11-28T03:40:23.901Z,84.53
2022-11-28T03:42:58.804Z,84.20
2022-11-28T03:45:29.074Z,84.96
2022-11-28T03:48:19.857Z,85.13
2022-11-28T03:50:52.519Z,84.60
2022-11-28T03:53:28.307Z,85.07
2022-11-28T03:56:00.931Z,84.47
2022-11-28T03:59:07.315Z,84.20
2022-11-28T04:01:49.555Z,83.67
2022-11-28T04:04:30.642Z,83.26
2022-11-28T04:07:19.926Z,82.59
2022-11-28T04:09:50.647Z,82.55
2022-11-28T04:12:53.469Z,83.57
2022-11-28T04:15:29.537Z,82.51
2022-11-28T04:18:25.321Z,82.22
2022-11-28T04:21:00.117Z,81.39
2022-11-28T04:23:29.381Z,82.11
2022-11-28T04:26:03.759Z,83.66
2022-11-28T04:28:33.245Z,83.28
2022-11-28T04:31:03.070Z,83.91
2022-11-28T04:33:33.451Z,83.40
2022-11-28T04:36:02.278Z,83.16
2022-11-28T04:38:30.530Z,82.40
2022-11-28T04:41:14.915Z,83.42
2022-11-28T04:43:47.961Z,83.09
2022-11-28T04:46:19.951Z,82.82
2022-11-28T04:48:48.009Z,82.11
2022-11-28T04:51:36.488Z,81.09
2022-11-28T04:54:05.708Z,82.80
2022-11-28T04:56:45.341Z,82.35
2022-11-28T04:59:13.858Z,82.12
2022-11-28T05:01:44.292Z,83.68
2022-11-28T05:04:13.446Z,83.43
2022-11-28T05:06:41.355Z,82.37
2022-11-28T05:09:12.734Z,81.97
2022-11-28T05:11:40.638Z,82.58
2022-11-28T05:14:08.585Z,81.57
2022-11-28T05:16:36.276Z,81.71
2022-11-28T05:19:04.093Z,81.83
2022-11-28T05:21:32.034Z,82.57
2022-11-28T05:23:59.660Z,82.05
2022-11-28T05:26:27.241Z,82.16
2022-11-28T05:28:55.184Z,82.51
2022-11-28T05:31:23.051Z,81.67
2022-11-28T05:33:51.052Z,81.96
2022-11-28T05:36:18.917Z,82.43
2022-11-28T05:38:46.793Z,82.16
2022-11-28T05:41:30.765Z,81.35
2022-11-28T05:43:59.483Z,82.25
2022-11-28T05:46:28.465Z,82.19
2022-11-28T05:48:56.695Z,82.80
2022-11-28T05:51:24.860Z,82.83
2022-11-28T05:53:52.544Z,82.30
2022-11-28T05:56:20.680Z,82.38
2022-11-28T05:58:49.253Z,82.81
2022-11-28T06:01:23.241Z,81.70
2022-11-28T06:03:51.320Z,82.11
2022-11-28T06:06:22.333Z,82.75
2022-11-28T06:08:51.191Z,82.69
2022-11-28T06:11:20.414Z,82.71
2022-11-28T06:13:49.329Z,83.18
2022-11-28T06:16:21.939Z,82.54
2022-11-28T06:18:54.430Z,82.07
2022-11-28T06:21:22.859Z,83.56
2022-11-28T06:23:51.000Z,83.72
2022-11-28T06:26:20.671Z,82.97
2022-11-28T06:28:48.563Z,82.11
2022-11-28T06:31:20.132Z,82.20
2022-11-28T06:33:48.533Z,82.52
2022-11-28T06:36:19.582Z,82.69
2022-11-28T06:38:47.421Z,82.37
2022-11-28T06:41:17.444Z,82.89
2022-11-28T06:43:45.514Z,82.61
2022-11-28T06:46:16.537Z,81.69
2022-11-28T06:48:45.305Z,81.60
2022-11-28T06:51:14.235Z,82.64
2022-11-28T06:53:42.405Z,81.50
2022-11-28T06:56:15.214Z,80.53
2022-11-28T06:58:44.073Z,80.24
2022-11-28T07:01:13.794Z,80.62
2022-11-28T07:03:41.720Z,80.79
2022-11-28T07:06:09.800Z,80.35
2022-11-28T07:08:37.665Z,80.86
2022-11-28T07:11:19.752Z,79.62
2022-11-28T07:13:48.726Z,79.40
2022-11-28T07:16:20.652Z,79.33
2022-11-28T07:18:49.178Z,78.87
2022-11-28T07:21:17.882Z,77.87
2022-11-28T07:23:46.949Z,77.87
2022-11-28T07:26:17.078Z,78.08
2022-11-28T07:28:45.778Z,78.97
2022-11-28T07:31:17.191Z,78.03
2022-11-28T07:33:47.318Z,77.35
2022-11-28T07:36:18.459Z,77.54
2022-11-28T07:38:47.896Z,77.90
2022-11-28T07:41:16.945Z,77.84
2022-11-28T07:43:45.986Z,77.38
2022-11-28T07:46:18.902Z,77.58
2022-11-28T07:48:47.840Z,78.06
2022-11-28T07:51:23.184Z,77.25
2022-11-28T07:53:51.539Z,77.50
2022-11-28T07:56:22.323Z,77.46
2022-11-28T07:58:50.164Z,78.14
2022-11-28T08:01:20.712Z,78.82
2022-11-28T08:03:48.751Z,78.00
2022-11-28T08:06:21.598Z,75.54
2022-11-28T08:08:50.398Z,75.18
2022-11-28T08:11:22.006Z,76.41
2022-11-28T08:13:52.826Z,75.29
2022-11-28T08:16:25.325Z,76.44
2022-11-28T08:18:54.233Z,75.32
2022-11-28T08:21:24.593Z,74.13
2022-11-28T08:23:53.504Z,74.52
2022-11-28T08:26:28.808Z,74.84
2022-11-28T08:28:59.675Z,73.43
2022-11-28T08:31:30.076Z,72.15
2022-11-28T08:33:59.651Z,72.44
2022-11-28T08:36:29.176Z,71.91
2022-11-28T08:41:47.823Z,71.58
2022-11-28T08:44:17.205Z,72.03
2022-11-28T08:46:44.822Z,70.52
2022-11-28T08:49:12.735Z,70.65
2022-11-28T08:51:40.384Z,71.28
2022-11-28T08:54:08.055Z,71.60
2022-11-28T08:56:36.051Z,72.05
2022-11-28T08:59:04.055Z,72.60
2022-11-28T09:01:31.964Z,72.13
2022-11-28T09:03:59.985Z,70.59
2022-11-28T09:06:27.642Z,72.31
2022-11-28T09:08:55.221Z,72.11
2022-11-28T09:11:23.603Z,73.60
2022-11-28T09:13:51.307Z,72.23
2022-11-28T09:16:19.269Z,73.04
2022-11-28T09:18:47.293Z,72.29
2022-11-28T09:21:15.811Z,73.51
2022-11-28T09:23:44.934Z,72.08
2022-11-28T09:26:17.768Z,73.71
2022-11-28T09:28:46.051Z,72.63
2022-11-28T09:31:15.813Z,71.01
2022-11-28T09:33:44.363Z,67.75
2022-11-28T09:36:17.557Z,68.89
2022-11-28T09:38:46.274Z,69.71
2022-11-28T09:41:49.364Z,70.24
2022-11-28T09:44:37.596Z,70.37
2022-11-28T09:47:12.424Z,70.43
2022-11-28T09:49:41.316Z,69.96
2022-11-28T09:52:21.789Z,71.17
2022-11-28T09:54:58.355Z,72.61
2022-11-28T09:57:39.135Z,71.12
2022-11-28T10:00:22.973Z,71.29
2022-11-28T10:03:43.628Z,71.03
2022-11-28T10:06:11.120Z,71.90
2022-11-28T10:08:53.959Z,70.82
2022-11-28T10:11:33.461Z,69.31
2022-11-28T10:14:09.557Z,70.08
2022-11-28T10:16:58.870Z,71.46
2022-11-28T10:19:53.786Z,70.51
2022-11-28T10:22:35.831Z,69.98
2022-11-28T10:25:05.411Z,69.66
2022-11-28T10:27:35.004Z,69.44
2022-11-28T10:30:06.592Z,69.30
2022-11-28T10:32:38.400Z,69.33
2022-11-28T10:35:43.669Z,70.07
2022-11-28T10:38:15.816Z,70.23
2022-11-28T10:40:50.620Z,70.07
2022-11-28T10:43:30.244Z,70.53
2022-11-28T10:46:16.392Z,71.16
2022-11-28T10:48:56.878Z,69.93
2022-11-28T10:51:42.903Z,69.61
2022-11-28T10:54:31.824Z,70.58
2022-11-28T10:57:16.999Z,70.53
2022-11-28T11:00:02.519Z,69.95
2022-11-28T11:02:40.119Z,69.28
2022-11-28T11:05:12.770Z,69.38
2022-11-28T11:07:44.175Z,69.45
2022-11-28T11:10:24.040Z,69.69
2022-11-28T11:12:52.703Z,69.16
2022-11-28T11:15:23.906Z,70.16
2022-11-28T11:17:51.835Z,71.64
2022-11-28T11:20:36.111Z,71.27
2022-11-28T11:23:15.775Z,71.98
2022-11-28T11:26:01.954Z,71.97
2022-11-28T11:28:42.097Z,71.12
2022-11-28T11:31:28.097Z,72.09
2022-11-28T11:34:16.800Z,72.64
2022-11-28T11:36:44.614Z,71.49
2022-11-28T11:39:12.495Z,69.96
2022-11-28T11:41:42.304Z,70.61
2022-11-28T11:44:15.981Z,71.18
2022-11-28T11:46:54.929Z,69.65
2022-11-28T11:49:36.527Z,70.38
2022-11-28T11:52:07.397Z,68.82
2022-11-28T11:54:35.018Z,70.33
2022-11-28T11:57:30.943Z,70.09
2022-11-28T12:00:07.419Z,70.79
2022-11-28T12:02:58.120Z,71.43
2022-11-28T12:06:06.550Z,70.51
2022-11-28T12:08:39.435Z,71.47
2022-11-28T12:11:28.868Z,72.44
2022-11-28T12:14:00.195Z,71.27
2022-11-28T12:16:57.258Z,72.06
2022-11-28T12:19:42.525Z,71.27
2022-11-28T12:22:16.468Z,72.70
2022-11-28T12:24:52.933Z,71.72
2022-11-28T12:27:32.931Z,72.73
2022-11-28T12:30:25.536Z,72.95
2022-11-28T12:32:59.375Z,72.24
2022-11-28T12:35:40.055Z,73.13
2022-11-28T12:38:19.162Z,73.87
2022-11-28T12:40:49.914Z,75.01
2022-11-28T12:43:26.725Z,73.98
2022-11-28T12:46:12.576Z,74.23
2022-11-28T12:48:53.668Z,74.75
2022-11-28T12:51:36.140Z,73.63
2022-11-28T12:54:22.086Z,73.66
2022-11-28T12:57:13.215Z,72.84
2022-11-28T12:59:50.189Z,71.55
2022-11-28T13:03:05.539Z,71.08
2022-11-28T13:05:55.121Z,70.69
2022-11-28T13:08:47.928Z,72.68
2022-11-28T13:11:28.877Z,73.77
2022-11-28T13:14:07.958Z,73.89
2022-11-28T13:16:45.715Z,73.10
2022-11-28T13:19:27.980Z,72.89
2022-11-28T13:22:13.634Z,71.20
2022-11-28T13:24:47.907Z,69.52
2022-11-28T13:27:31.060Z,69.97
2022-11-28T13:30:08.840Z,70.50
2022-11-28T13:33:07.828Z,71.80
2022-11-28T13:35:35.992Z,72.52
2022-11-28T13:38:50.640Z,72.71
2022-11-28T13:42:13.987Z,72.48
2022-11-28T13:44:44.425Z,74.08
2022-11-28T13:47:26.106Z,73.89
2022-11-28T13:50:24.880Z,73.80
2022-11-28T13:52:59.544Z,74.92
2022-11-28T13:55:38.861Z,73.90
2022-11-28T13:58:22.593Z,74.25
2022-11-28T14:01:02.917Z,75.11
2022-11-28T14:03:33.417Z,74.43
2022-11-28T14:06:05.125Z,73.56
2022-11-28T14:08:38.566Z,74.02
2022-11-28T14:11:21.447Z,73.12
2022-11-28T14:14:05.885Z,73.57
2022-11-28T14:16:52.032Z,74.16
2022-11-28T14:19:29.404Z,72.81
2022-11-28T14:22:05.288Z,72.99
2022-11-28T14:24:51.690Z,73.01
2022-11-28T14:27:39.598Z,73.27
2022-11-28T14:30:23.209Z,74.07
2022-11-28T14:32:55.738Z,73.93
2022-11-28T14:36:01.294Z,74.91
2022-11-28T14:38:30.271Z,74.67
2022-11-28T14:40:59.594Z,74.29
2022-11-28T14:43:40.745Z,74.47
2022-11-28T14:46:31.301Z,74.48
2022-11-28T14:48:59.109Z,74.10
2022-11-28T14:51:45.540Z,75.29
2022-11-28T14:54:36.772Z,75.57
2022-11-28T14:57:26.096Z,75.41
2022-11-28T14:59:54.968Z,76.16
2022-11-28T15:02:38.805Z,75.98
2022-11-28T15:05:37.425Z,75.79
2022-11-28T15:08:27.716Z,75.44
2022-11-28T15:11:20.295Z,76.00
2022-11-28T15:14:19.339Z,77.13
2022-11-28T15:16:50.702Z,76.47
2022-11-28T15:19:52.111Z,76.11
2022-11-28T15:22:30.379Z,75.84
2022-11-28T15:24:58.944Z,75.59
2022-11-28T15:27:29.737Z,76.59
2022-11-28T15:30:00.101Z,76.38
2022-11-28T15:32:30.097Z,76.26
2022-11-28T15:35:01.783Z,77.47
2022-11-28T15:37:31.828Z,77.10
2022-11-28T15:40:01.992Z,76.77
2022-11-28T15:42:34.408Z,78.25
2022-11-28T15:45:10.977Z,78.11
2022-11-28T15:47:39.381Z,77.68
2022-11-28T15:50:14.825Z,78.02
2022-11-28T15:52:59.454Z,77.25
2022-11-28T15:55:31.756Z,77.57
2022-11-28T15:58:11.687Z,77.51
2022-11-28T16:00:41.903Z,77.31
2022-11-28T16:03:14.756Z,78.31
2022-11-28T16:05:42.995Z,77.72
2022-11-28T16:08:30.020Z,77.91
2022-11-28T16:10:59.627Z,78.57
2022-11-28T16:13:29.175Z,78.15
2022-11-28T16:15:58.106Z,77.79
2022-11-28T16:18:27.572Z,77.44
2022-11-28T16:20:57.942Z,76.90
2022-11-28T16:23:36.779Z,77.65
2022-11-28T16:26:21.983Z,78.01
2022-11-28T16:29:06.750Z,78.93
2022-11-28T16:31:35.598Z,78.72
2022-11-28T16:34:03.760Z,78.60
2022-11-28T16:36:36.721Z,79.33
2022-11-28T16:39:06.232Z,79.84
2022-11-28T16:41:36.182Z,79.96
2022-11-28T16:44:07.271Z,81.17
2022-11-28T16:46:38.629Z,81.30
2022-11-28T16:49:45.389Z,80.46
2022-11-28T16:52:22.005Z,80.41
2022-11-28T16:54:54.573Z,79.94
2022-11-28T16:57:22.530Z,79.94
2022-11-28T16:59:51.708Z,80.79
2022-11-28T17:02:21.405Z,80.81
2022-11-28T17:04:51.284Z,80.40
2022-11-28T17:07:21.373Z,80.92
2022-11-28T17:09:50.057Z,81.12
2022-11-28T17:12:27.231Z,81.79
2022-11-28T17:14:56.660Z,81.67
2022-11-28T17:17:25.473Z,81.78
2022-11-28T17:19:54.580Z,81.82
2022-11-28T17:22:40.230Z,81.91
2022-11-28T17:25:17.027Z,82.31
2022-11-28T17:27:46.117Z,82.11
2022-11-28T17:30:19.145Z,82.12
2022-11-28T17:32:49.349Z,82.34
2022-11-28T17:35:20.872Z,82.12
2022-11-28T17:37:49.005Z,82.69
2022-11-28T17:40:17.299Z,82.96
2022-11-28T17:42:45.599Z,83.67
2022-11-28T17:45:14.342Z,83.39
2022-11-28T17:47:42.242Z,83.34
2022-11-28T17:50:09.995Z,83.83
2022-11-28T17:52:38.024Z,84.10
2022-11-28T17:55:07.256Z,83.51
2022-11-28T17:57:35.688Z,83.84
2022-11-28T18:00:05.914Z,83.32
2022-11-28T18:02:41.904Z,83.59
2022-11-28T18:05:10.271Z,82.93
2022-11-28T18:07:39.308Z,83.93
2022-11-28T18:10:09.555Z,83.96
2022-11-28T18:12:37.899Z,83.84
2022-11-28T18:15:05.896Z,83.91
2022-11-28T18:17:34.966Z,84.22
2022-11-28T18:20:04.001Z,84.08
2022-11-28T18:22:32.356Z,83.58
2022-11-28T18:25:00.497Z,83.46
2022-11-28T18:27:29.447Z,83.67
2022-11-28T18:29:57.457Z,84.52
2022-11-28T18:32:25.473Z,84.15
2022-11-28T18:34:53.739Z,84.40
2022-11-28T18:37:21.655Z,84.24
2022-11-28T18:39:49.365Z,84.31
2022-11-28T18:42:18.209Z,84.34
2022-11-28T18:44:46.055Z,84.75
2022-11-28T18:47:14.010Z,84.24
2022-11-28T18:49:42.561Z,84.19
2022-11-28T18:52:10.804Z,84.23
2022-11-28T18:54:39.949Z,84.12
2022-11-28T18:57:08.313Z,84.01
2022-11-28T18:59:36.734Z,84.01
2022-11-28T19:02:05.180Z,84.10
2022-11-28T19:04:33.400Z,84.42
2022-11-28T19:07:01.949Z,84.34
2022-11-28T19:09:31.478Z,84.16
2022-11-28T19:11:59.672Z,83.95
2022-11-28T19:14:29.768Z,84.42
2022-11-28T19:16:59.487Z,84.57
2022-11-28T19:19:27.540Z,84.60
2022-11-28T19:21:55.735Z,85.23
2022-11-28T19:24:25.070Z,84.83
2022-11-28T19:26:53.004Z,85.33
2022-11-28T19:29:21.126Z,85.08
2022-11-28T19:31:49.096Z,85.00
2022-11-28T19:34:18.650Z,84.92
2022-11-28T19:36:48.717Z,84.54
2022-11-28T19:39:22.346Z,84.82
2022-11-28T19:41:51.685Z,84.80
2022-11-28T19:44:20.357Z,85.13
2022-11-28T19:46:48.304Z,85.24
2022-11-28T19:49:19.827Z,84.57
2022-11-28T19:51:50.206Z,84.24
2022-11-28T19:54:19.043Z,84.16
2022-11-28T19:56:48.459Z,84.29
2022-11-28T19:59:17.516Z,84.02
2022-11-28T20:01:45.877Z,83.80
2022-11-28T20:04:14.503Z,83.85
2022-11-28T20:06:42.427Z,84.21
2022-11-28T20:09:12.120Z,84.30
2022-11-28T20:11:42.718Z,84.35
2022-11-28T20:14:13.392Z,83.31
2022-11-28T20:16:41.985Z,84.77
2022-11-28T20:19:11.338Z,84.71
2022-11-28T20:21:39.612Z,84.06
2022-11-28T20:24:10.384Z,84.30
2022-11-28T20:26:40.833Z,84.20
2022-11-28T20:29:13.042Z,83.82
2022-11-28T20:31:40.871Z,85.08
2022-11-28T20:34:09.140Z,84.53
2022-11-28T20:36:37.342Z,84.67
2022-11-28T20:39:06.271Z,84.61
2022-11-28T20:41:34.506Z,84.82
2022-11-28T20:44:02.696Z,84.68
2022-11-28T20:46:32.276Z,85.08
2022-11-28T20:49:04.283Z,85.31
2022-11-28T20:51:33.170Z,85.43
2022-11-28T20:54:01.877Z,85.78
2022-11-28T20:56:31.381Z,86.06
2022-11-28T20:58:59.625Z,86.12
2022-11-28T21:01:30.346Z,86.16
2022-11-28T21:03:58.175Z,85.77
2022-11-28T21:06:26.055Z,85.81
2022-11-28T21:08:54.189Z,86.18
2022-11-28T21:11:55.238Z,86.20
2022-11-28T21:14:11.232Z,85.89
2022-11-28T21:16:39.118Z,86.31
2022-11-28T21:19:08.060Z,87.62
2022-11-28T21:21:38.412Z,87.30
2022-11-28T21:24:09.047Z,87.13
2022-11-28T21:26:41.698Z,87.20
2022-11-28T21:29:11.535Z,86.98
2022-11-28T21:31:42.685Z,88.33
2022-11-28T21:34:14.911Z,86.72
2022-11-28T21:36:43.138Z,86.60
2022-11-28T21:39:18.289Z,86.90
2022-11-28T21:41:46.500Z,86.66
2022-11-28T21:44:14.135Z,86.45
2022-11-28T21:46:41.803Z,86.60
2022-11-28T21:49:09.899Z,87.00
2022-11-28T21:51:38.003Z,86.57
2022-11-28T21:54:06.649Z,86.90
2022-11-28T21:56:34.656Z,87.26
2022-11-28T21:59:02.486Z,87.20
2022-11-28T22:01:30.263Z,87.08
2022-11-28T22:04:02.336Z,87.15
2022-11-28T22:06:31.868Z,87.03
2022-11-28T22:09:08.383Z,87.42
2022-11-28T22:11:37.542Z,86.83
2022-11-28T22:14:05.493Z,87.75
2022-11-28T22:16:33.518Z,87.37
2022-11-28T22:19:01.378Z,86.87
2022-11-28T22:24:19.192Z,87.13
2022-11-28T22:26:48.770Z,87.33
2022-11-28T22:29:16.698Z,87.64
2022-11-28T22:31:44.423Z,86.76
2022-11-28T22:34:12.633Z,86.53
2022-11-28T22:36:40.459Z,86.49
2022-11-28T22:39:10.618Z,86.86
2022-11-28T22:41:38.851Z,86.49
2022-11-28T22:44:06.666Z,86.56
2022-11-28T22:46:34.491Z,86.23
2022-11-28T22:49:03.246Z,85.94
2022-11-28T22:51:31.366Z,86.80
2022-11-28T22:54:00.839Z,86.27
2022-11-28T22:56:31.383Z,86.14
2022-11-28T22:58:59.925Z,86.87
2022-11-28T23:01:29.976Z,86.24
2022-11-28T23:03:59.223Z,86.35
2022-11-28T23:06:29.815Z,86.96
2022-11-28T23:08:59.189Z,86.40
2022-11-28T23:11:29.616Z,86.80
2022-11-28T23:13:59.014Z,86.46
2022-11-28T23:16:30.710Z,87.33
2022-11-28T23:19:00.798Z,87.41
2022-11-28T23:21:30.654Z,86.85
2022-11-28T23:23:58.626Z,87.09
2022-11-28T23:26:28.101Z,87.01
2022-11-28T23:28:56.303Z,87.29
2022-11-28T23:31:29.645Z,86.84
2022-11-28T23:33:58.402Z,86.89
2022-11-28T23:36:34.631Z,85.55
2022-11-28T23:39:10.590Z,85.45
2022-11-28T23:41:39.071Z,85.40
2022-11-28T23:44:07.090Z,85.79
2022-11-28T23:46:35.566Z,86.14
2022-11-28T23:49:05.415Z,85.89
2022-11-28T23:51:33.788Z,85.34
2022-11-28T23:54:01.570Z,85.68
2022-11-28T23:56:31.177Z,86.21
2022-11-28T23:59:01.285Z,85.69
